CYXS

Prince George Airport

Prince George, British Columbia, Canada
METAR CYXS 170008Z AUTO 18014G20KT 1/2SM SN VV006 M02/M02 A2987 RMK SLP156
Observed Flight Rules
Dec-17 @ 00:08 UTC (16 minutes ago) Instrument Flight Rules
Wind Visibility Clouds Conditions
180° at 14 knots
 Gusting to 20 knots
1/2 miles
  • Vertical visibility at 600' AGL
  • Snow
Temperatures Readings
Current -2°C / 28°F
Dewpoint -2°C / 28°F
Humidity 100%
Altimeter 29.87" Hg
Pressure 1015.6 hPa
Elevation 691
METAR CYXS 170008Z AUTO 18014G20KT 1/2SM SN VV006 M02/M02 A2987 RMK SLP156
Observed Flight Rules
Dec-17 @ 00:08 UTC
(16 minutes ago)
LIFR
Wind Visibility
180° at 14 knots
 Gusting to 20 knots
1/2 miles
Clouds
  • Vertical visibility at 600' AGL
Conditions
  • Snow
Temperature Dewpoint
-2°C / 28°F -2°C / 28°F
Humidity Altimeter Pressure
100% 29.87" Hg 1015.6 hPa